Time;durP1;ratioP1;P1;durP2;ratioP2;P2;SDS_P1;SDS_P2;PMS_P1;PMS_P2;Temp;Humidity;BMP_temperature;BMP_pressure;BME280_temperature;BME280_humidity;BME280_pressure;Samples;Min_cycle;Max_cycle;Signal;HPM_P1;HPM_P2
2021/04/27 00:00:32;;;;;;;112.70;62.33;;;;;;;3.32;74.67;94283.94;1766022;81;21155;-58
2021/04/27 00:03:00;;;;;;;83.60;45.20;;;;;;;3.34;74.58;94282.93;1766080;81;21155;-58
2021/04/27 00:05:28;;;;;;;75.95;43.95;;;;;;;3.30;74.62;94275.43;1766039;81;21059;-57
2021/04/27 00:07:56;;;;;;;77.72;43.28;;;;;;;3.25;74.83;94278.62;1766095;81;21063;-58
2021/04/27 00:10:24;;;;;;;66.20;37.10;;;;;;;3.25;74.76;94274.55;1766107;81;22184;-58
2021/04/27 00:12:53;;;;;;;61.75;37.35;;;;;;;3.22;74.74;94270.69;1766015;81;21115;-58
2021/04/27 00:15:24;;;;;;;62.85;39.38;;;;;;;3.20;74.68;94270.33;1766059;81;21158;-59
2021/04/27 00:17:52;;;;;;;65.80;39.38;;;;;;;3.16;74.74;94270.98;1766063;81;21155;-58
2021/04/27 00:20:21;;;;;;;70.90;39.98;;;;;;;3.11;74.98;94263.30;1766109;81;21502;-57
2021/04/27 00:22:51;;;;;;;75.78;44.05;;;;;;;3.12;75.14;94273.56;1766025;81;21500;-57
2021/04/27 00:25:19;;;;;;;70.85;42.55;;;;;;;3.09;75.06;94272.43;1765990;81;21134;-57
2021/04/27 00:27:50;;;;;;;85.42;48.52;;;;;;;3.10;75.26;94269.92;1766061;81;21075;-57
2021/04/27 00:30:19;;;;;;;77.22;44.80;;;;;;;3.15;75.30;94270.81;1766058;81;21064;-58
2021/04/27 00:32:47;;;;;;;76.75;43.13;;;;;;;3.24;75.03;94268.33;1766094;81;21071;-57
2021/04/27 00:35:15;;;;;;;70.67;41.58;;;;;;;3.34;74.91;94268.77;1766038;81;21359;-57
2021/04/27 00:37:43;;;;;;;69.30;39.08;;;;;;;3.41;74.46;94267.89;1765965;81;21147;-57
2021/04/27 00:40:14;;;;;;;59.48;35.83;;;;;;;3.40;74.12;94264.99;1788308;80;21178;-57
2021/04/27 00:42:45;;;;;;;66.10;36.88;;;;;;;3.34;74.15;94259.83;1788677;78;21622;-57
2021/04/27 00:45:17;;;;;;;84.85;46.28;;;;;;;3.34;73.90;94251.67;1788865;80;21583;-58
2021/04/27 00:47:45;;;;;;;82.62;47.48;;;;;;;3.29;73.79;94241.28;1788826;80;23148;-58
2021/04/27 00:50:17;;;;;;;92.90;48.02;;;;;;;3.18;73.88;94249.59;1788646;80;21174;-58
2021/04/27 00:52:46;;;;;;;95.90;47.25;;;;;;;3.07;74.31;94249.59;1788741;80;21083;-57
2021/04/27 00:55:14;;;;;;;87.27;45.92;;;;;;;3.04;74.61;94249.05;1788712;80;21598;-58
2021/04/27 00:57:42;;;;;;;74.20;40.28;;;;;;;3.02;74.38;94244.63;1788711;80;21158;-57
2021/04/27 01:00:14;;;;;;;64.03;36.70;;;;;;;2.94;74.40;94246.67;1788759;80;21504;-57
2021/04/27 01:02:43;;;;;;;57.98;31.90;;;;;;;2.90;74.29;94249.26;1788500;80;21582;-57
2021/04/27 01:05:15;;;;;;;57.75;34.00;;;;;;;2.79;74.20;94245.91;1788696;80;21147;-58
2021/04/27 01:08:06;;;;;;;48.60;29.50;;;;;;;2.69;74.36;94250.92;1788837;80;21142;-57
2021/04/27 01:10:43;;;;;;;49.05;30.25;;;;;;;2.61;74.30;94248.10;1788749;80;21167;-57
2021/04/27 01:13:25;;;;;;;48.45;30.10;;;;;;;2.49;74.56;94241.88;1788705;80;21229;-56
2021/04/27 01:15:54;;;;;;;55.67;32.28;;;;;;;2.46;74.83;94246.75;1788693;80;21126;-58
2021/04/27 01:18:22;;;;;;;68.60;40.12;;;;;;;2.46;74.88;94244.81;1764694;80;21572;-57
2021/04/27 01:20:50;;;;;;;72.35;39.63;;;;;;;2.44;75.02;94252.59;1788723;80;21067;-56
2021/04/27 01:23:48;;;;;;;68.22;37.93;;;;;;;2.40;74.95;94245.67;1788558;80;21079;-57
2021/04/27 01:26:31;;;;;;;57.48;34.48;;;;;;;2.36;74.93;94250.38;1788739;80;21432;-58
2021/04/27 01:28:59;;;;;;;51.47;30.43;;;;;;;2.37;75.26;94247.84;1773627;80;21078;-58
2021/04/27 01:31:28;;;;;;;55.40;32.10;;;;;;;2.38;74.96;94257.52;1764723;80;21087;-57
2021/04/27 01:33:56;;;;;;;37.40;24.87;;;;;;;2.35;74.91;94254.27;1788627;80;21186;-57
2021/04/27 01:36:25;;;;;;;36.55;24.43;;;;;;;2.32;74.89;94259.16;1764639;80;21143;-57
2021/04/27 01:38:54;;;;;;;32.85;20.82;;;;;;;2.23;74.74;94258.30;1781179;80;21559;-57
2021/04/27 01:41:23;;;;;;;32.83;21.52;;;;;;;2.13;74.76;94251.03;1766083;79;21159;-57
2021/04/27 01:43:51;;;;;;;29.37;22.10;;;;;;;2.03;75.09;94251.16;1766153;81;21159;-57
2021/04/27 01:46:19;;;;;;;41.98;26.37;;;;;;;1.98;75.53;94248.30;1766104;81;21091;-57
2021/04/27 01:48:48;;;;;;;39.78;25.08;;;;;;;1.97;75.67;94249.47;1766223;81;21064;-57
2021/04/27 01:51:18;;;;;;;65.62;36.88;;;;;;;2.00;75.98;94252.72;1765757;81;21204;-57
2021/04/27 01:53:55;;;;;;;65.70;36.20;;;;;;;2.05;75.75;94253.66;1748272;81;21178;-58
2021/04/27 01:56:25;;;;;;;55.35;32.08;;;;;;;2.00;75.99;94260.11;1766114;81;21131;-58
2021/04/27 01:58:53;;;;;;;51.55;28.73;;;;;;;1.97;76.23;94251.42;1766083;80;21572;-57
2021/04/27 02:01:24;;;;;;;45.28;25.45;;;;;;;1.97;76.22;94252.18;1766211;81;21123;-57
2021/04/27 02:03:52;;;;;;;50.33;28.98;;;;;;;2.00;76.24;94253.33;1766112;81;21258;-56
2021/04/27 02:06:30;;;;;;;46.85;26.80;;;;;;;1.99;76.46;94259.92;1765003;81;21150;-57
2021/04/27 02:09:09;;;;;;;40.40;25.30;;;;;;;2.00;76.66;94256.04;1766144;81;21075;-57
2021/04/27 02:11:41;;;;;;;49.75;22.95;;;;;;;1.99;76.96;94258.57;1766027;80;21084;-57
2021/04/27 02:14:11;;;;;;;32.42;21.87;;;;;;;2.00;76.88;94258.14;1766249;81;21082;-57
2021/04/27 02:16:48;;;;;;;40.80;23.65;;;;;;;2.03;77.13;94256.58;1766118;81;21206;-58
2021/04/27 02:19:16;;;;;;;37.58;23.15;;;;;;;2.09;76.99;94249.53;1766127;81;21079;-56
2021/04/27 02:21:46;;;;;;;39.65;24.35;;;;;;;2.04;76.86;94252.12;1766019;81;21096;-57
2021/04/27 02:24:28;;;;;;;39.75;25.40;;;;;;;1.99;77.07;94251.79;1765860;81;21079;-56
2021/04/27 02:26:56;;;;;;;41.77;23.95;;;;;;;2.01;77.10;94250.22;1766160;81;21087;-57
2021/04/27 02:29:26;;;;;;;44.45;24.67;;;;;;;2.08;77.43;94246.06;1766079;80;21378;-58
2021/04/27 02:31:56;;;;;;;42.80;26.77;;;;;;;2.15;77.36;94241.14;1766078;81;21146;-58
2021/04/27 02:34:26;;;;;;;51.83;29.30;;;;;;;2.17;77.30;94236.83;1766102;81;21135;-58
2021/04/27 02:36:55;;;;;;;47.93;25.37;;;;;;;2.19;77.26;94232.37;1765888;81;21612;-58
2021/04/27 02:39:31;;;;;;;57.85;32.00;;;;;;;2.23;77.62;94234.45;1765955;81;21174;-57
2021/04/27 02:41:59;;;;;;;57.75;30.90;;;;;;;2.28;77.38;94241.55;1766114;79;21389;-57
2021/04/27 02:44:45;;;;;;;65.03;31.30;;;;;;;2.34;77.21;94241.88;1766015;81;21147;-58
2021/04/27 02:47:15;;;;;;;58.17;30.30;;;;;;;2.37;77.16;94238.34;1766094;81;21146;-58
2021/04/27 02:49:43;;;;;;;68.07;36.98;;;;;;;2.44;77.28;94239.03;1765867;81;21194;-58
2021/04/27 02:52:13;;;;;;;59.30;33.25;;;;;;;2.50;76.80;94239.34;1766100;81;21170;-57
2021/04/27 02:54:52;;;;;;;44.93;26.52;;;;;;;2.51;76.72;94243.60;1766127;81;23763;-57
2021/04/27 02:57:20;;;;;;;48.50;28.27;;;;;;;2.52;76.78;94243.17;1766012;81;21151;-58
2021/04/27 02:59:48;;;;;;;58.70;36.65;;;;;;;2.53;76.86;94241.24;1766098;81;21063;-58
2021/04/27 03:02:17;;;;;;;46.00;27.13;;;;;;;2.56;76.58;94243.14;1766111;81;21116;-56
2021/04/27 03:04:45;;;;;;;46.15;27.98;;;;;;;2.55;76.79;94240.24;1766073;81;21135;-57
2021/04/27 03:07:14;;;;;;;56.68;29.90;;;;;;;2.66;76.76;94240.88;1766180;81;22126;-58
2021/04/27 03:09:44;;;;;;;58.55;33.45;;;;;;;2.80;76.41;94248.80;1766002;81;21143;-59
2021/04/27 03:12:12;;;;;;;58.42;29.02;;;;;;;2.84;75.97;94243.52;1766078;81;21583;-58
2021/04/27 03:14:41;;;;;;;52.50;32.00;;;;;;;2.89;76.10;94244.40;1746589;81;21202;-56
2021/04/27 03:17:10;;;;;;;59.35;33.75;;;;;;;2.98;75.76;94248.74;1766132;81;21095;-57
2021/04/27 03:19:40;;;;;;;56.33;28.85;;;;;;;3.01;75.55;94247.14;1766046;81;21197;-60
2021/04/27 03:22:09;;;;;;;48.35;27.10;;;;;;;3.05;75.35;94241.08;1765943;81;21103;-59
2021/04/27 03:24:38;;;;;;;58.80;26.23;;;;;;;3.09;75.20;94237.72;1766103;81;21083;-58
2021/04/27 03:27:06;;;;;;;35.73;22.75;;;;;;;3.06;74.96;94239.30;1766097;81;21084;-57
2021/04/27 03:29:46;;;;;;;43.35;25.60;;;;;;;3.07;74.74;94238.11;1766138;81;21071;-59
2021/04/27 03:32:15;;;;;;;42.53;25.02;;;;;;;3.00;74.52;94234.73;1766228;81;21200;-57
2021/04/27 03:34:43;;;;;;;45.65;29.10;;;;;;;2.93;74.50;94232.13;1765950;81;21123;-61
2021/04/27 03:37:11;;;;;;;43.05;25.95;;;;;;;2.84;74.44;94235.36;1766073;81;21162;-60
2021/04/27 03:39:39;;;;;;;35.20;23.30;;;;;;;2.78;74.68;94234.88;1774001;80;21064;-58
2021/04/27 03:42:07;;;;;;;43.98;25.70;;;;;;;2.77;74.54;94240.13;1788613;78;21052;-59
2021/04/27 03:44:36;;;;;;;53.00;35.43;;;;;;;2.79;74.82;94247.27;1788598;80;21431;-59
2021/04/27 03:47:05;;;;;;;62.80;34.25;;;;;;;2.92;74.77;94248.25;1788507;80;21123;-58
2021/04/27 03:49:34;;;;;;;56.20;31.50;;;;;;;3.02;74.38;94252.17;1788607;80;21114;-58
2021/04/27 03:52:02;;;;;;;44.50;27.87;;;;;;;3.13;74.23;94251.44;1788701;80;21571;-60
2021/04/27 03:54:31;;;;;;;65.47;34.67;;;;;;;3.26;73.75;94260.52;1788713;80;21063;-60
2021/04/27 03:56:59;;;;;;;61.02;44.10;;;;;;;3.37;72.95;94254.34;1788577;80;21514;-59
2021/04/27 03:59:27;;;;;;;44.45;28.92;;;;;;;3.37;72.70;94256.28;1788634;80;21099;-60
2021/04/27 04:01:56;;;;;;;38.00;23.98;;;;;;;3.43;72.47;94249.96;1788587;80;21163;-66
2021/04/27 04:04:24;;;;;;;37.58;26.93;;;;;;;3.47;72.30;94258.07;1788678;80;21555;-60
2021/04/27 04:07:20;;;;;;;66.72;35.05;;;;;;;3.66;71.95;94249.98;1872884;75;22671;-59
2021/04/27 04:10:08;;;;;;;84.22;45.15;;;;;;;3.73;71.40;94260.73;1841574;78;21231;-57
2021/04/27 04:12:37;;;;;;;86.67;41.58;;;;;;;3.64;71.39;94262.63;1841670;78;22135;-56
2021/04/27 04:15:11;;;;;;;83.60;41.63;;;;;;;3.56;71.61;94266.66;1841498;78;21153;-56
2021/04/27 04:17:41;;;;;;;83.70;42.08;;;;;;;3.50;72.01;94280.52;1841679;77;21117;-56
2021/04/27 04:20:19;;;;;;;81.40;41.15;;;;;;;3.50;72.29;94274.33;1841647;78;21546;-56
2021/04/27 04:22:52;;;;;;;66.07;38.98;;;;;;;3.52;72.46;94267.28;1837293;78;21140;-56
2021/04/27 04:25:20;;;;;;;87.27;46.90;;;;;;;3.54;72.57;94263.55;1841558;78;21191;-56
2021/04/27 04:27:49;;;;;;;98.72;48.35;;;;;;;3.53;72.69;94266.09;1841593;78;20991;-56
2021/04/27 04:30:24;;;;;;;100.38;54.05;;;;;;;3.55;72.69;94269.17;1840559;77;21123;-57
2021/04/27 04:32:52;;;;;;;;;;;;;;;3.54;72.77;94271.71;1844326;77;21503;-57
2021/04/27 04:35:38;;;;;;;89.32;46.35;;;;;;;3.60;72.90;94270.08;1841571;77;20238;-56
2021/04/27 04:38:24;;;;;;;78.57;43.60;;;;;;;3.67;72.56;94261.78;1841582;78;21369;-58
2021/04/27 04:41:04;;;;;;;92.65;45.05;;;;;;;3.73;72.53;94271.00;1805619;78;21097;-57
2021/04/27 04:43:51;;;;;;;75.35;42.62;;;;;;;3.81;72.35;94278.45;1808515;79;21541;-57
2021/04/27 04:46:39;;;;;;;69.30;37.00;;;;;;;3.91;72.28;94271.45;1808484;79;21136;-57
2021/04/27 04:49:25;;;;;;;98.03;31.95;;;;;;;4.04;71.52;94273.75;1808514;79;21049;-56
2021/04/27 04:52:13;;;;;;;58.33;30.23;;;;;;;4.04;70.82;94279.20;1808522;79;21356;-55
2021/04/27 04:54:50;;;;;;;57.73;28.12;;;;;;;4.00;70.56;94272.27;1804372;78;21156;-56
2021/04/27 04:57:22;;;;;;;64.25;34.30;;;;;;;3.99;70.42;94270.16;1744467;79;21057;-55
2021/04/27 04:59:51;;;;;;;56.25;32.53;;;;;;;4.02;70.49;94272.05;1808427;79;21058;-56
2021/04/27 05:02:19;;;;;;;71.00;33.83;;;;;;;4.07;70.14;94271.55;1779268;79;21124;-56
2021/04/27 05:04:53;;;;;;;66.28;34.33;;;;;;;4.17;69.98;94269.23;1808462;78;21494;-59
2021/04/27 05:07:26;;;;;;;83.47;40.70;;;;;;;4.36;69.80;94263.03;1739743;79;21474;-59
2021/04/27 05:10:15;;;;;;;75.90;44.80;;;;;;;4.61;69.07;94259.81;1808465;78;21082;-60
2021/04/27 05:12:45;;;;;;;62.48;31.62;;;;;;;4.81;68.03;94258.58;1807461;79;21145;-59
2021/04/27 05:15:15;;;;;;;59.13;33.42;;;;;;;4.90;65.98;94261.52;1808449;79;21474;-60
2021/04/27 05:17:44;;;;;;;61.73;35.23;;;;;;;4.87;66.02;94262.95;1808018;78;21366;-60
2021/04/27 05:20:12;;;;;;;46.58;29.20;;;;;;;4.86;66.34;94260.83;1807859;79;21494;-60
2021/04/27 05:22:45;;;;;;;43.98;24.57;;;;;;;4.90;66.06;94266.97;1805732;79;21490;-61
2021/04/27 05:25:14;;;;;;;24.18;17.45;;;;;;;4.98;64.53;94262.88;1740420;81;21679;-58
2021/04/27 05:27:44;;;;;;;34.45;17.75;;;;;;;5.05;62.21;94255.93;1767158;78;21063;-57
2021/04/27 05:30:14;;;;;;;66.77;33.80;;;;;;;5.06;61.46;94265.64;1798212;78;21202;-57
2021/04/27 05:32:42;;;;;;;66.65;30.52;;;;;;;5.10;59.76;94263.59;1803770;78;21085;-57
2021/04/27 05:35:11;;;;;;;58.55;28.12;;;;;;;5.21;57.78;94260.05;1824651;78;21110;-58
2021/04/27 05:37:39;;;;;;;29.23;17.23;;;;;;;5.32;57.36;94261.91;1797108;78;21620;-57
2021/04/27 05:40:10;;;;;;;37.73;19.75;;;;;;;5.40;54.97;94258.59;1824996;78;21144;-59
2021/04/27 05:42:38;;;;;;;31.45;18.52;;;;;;;5.44;55.58;94262.00;1792462;78;22897;-60
2021/04/27 05:45:09;;;;;;;19.00;12.50;;;;;;;5.54;55.89;94252.03;1822262;78;21176;-58
2021/04/27 05:47:41;;;;;;;43.00;22.32;;;;;;;5.70;55.71;94254.17;1816058;78;21133;-60
2021/04/27 05:50:10;;;;;;;40.10;19.87;;;;;;;5.77;54.37;94256.71;1815987;78;21546;-59
2021/04/27 05:52:38;;;;;;;33.30;20.57;;;;;;;5.83;54.02;94257.00;1819372;78;21157;-57
2021/04/27 05:55:07;;;;;;;31.10;18.98;;;;;;;5.92;53.63;94254.41;1807156;78;23517;-59
2021/04/27 05:57:35;;;;;;;29.95;12.73;;;;;;;6.03;53.24;94253.55;1821641;78;21566;-59
2021/04/27 06:00:05;;;;;;;23.30;12.98;;;;;;;6.15;53.67;94256.33;1804117;78;21146;-56
2021/04/27 06:02:34;;;;;;;47.30;20.02;;;;;;;6.17;52.91;94255.30;1814302;78;21148;-57
2021/04/27 06:05:03;;;;;;;29.98;17.17;;;;;;;6.12;52.01;94250.98;1808501;78;21482;-60
2021/04/27 06:07:33;;;;;;;22.30;14.50;;;;;;;6.08;52.52;94249.70;1793890;78;21119;-58
2021/04/27 06:10:00;;;;;;;38.95;20.43;;;;;;;6.21;52.48;94251.12;1799791;78;21196;-57
2021/04/27 06:12:29;;;;;;;62.83;28.87;;;;;;;6.32;50.94;94248.27;1798164;78;21307;-58
2021/04/27 06:14:58;;;;;;;32.23;18.92;;;;;;;6.38;51.07;94252.02;1792919;78;21172;-58
2021/04/27 06:17:27;;;;;;;26.07;15.88;;;;;;;6.41;51.13;94247.64;1751712;80;21183;-57
2021/04/27 06:19:55;;;;;;;21.23;11.30;;;;;;;6.42;50.98;94250.53;1742063;81;22631;-58
2021/04/27 06:22:22;;;;;;;32.05;13.70;;;;;;;6.41;51.03;94258.56;1743671;81;21249;-58
2021/04/27 06:24:51;;;;;;;29.02;13.30;;;;;;;6.40;51.17;94255.08;1742843;81;21235;-63
2021/04/27 06:27:23;;;;;;;21.33;13.38;;;;;;;6.45;51.12;94250.45;1718335;82;21480;-58
2021/04/27 06:29:52;;;;;;;21.45;12.68;;;;;;;6.46;50.27;94247.09;1746290;81;22410;-61
2021/04/27 06:32:21;;;;;;;24.30;14.70;;;;;;;6.56;50.77;94244.69;1745758;80;21342;-57
2021/04/27 06:34:48;;;;;;;19.42;12.47;;;;;;;6.60;50.83;94243.98;1748717;80;21133;-58
2021/04/27 06:37:16;;;;;;;18.37;11.35;;;;;;;6.65;50.66;94244.80;1744788;80;21178;-60
2021/04/27 06:39:44;;;;;;;20.37;12.70;;;;;;;6.77;50.64;94244.07;1745785;80;21202;-60
2021/04/27 06:42:13;;;;;;;23.25;13.88;;;;;;;6.87;50.84;94245.75;1744469;81;21221;-58
2021/04/27 06:44:41;;;;;;;27.77;12.82;;;;;;;6.91;50.27;94251.87;1745743;81;21195;-59
2021/04/27 06:47:09;;;;;;;32.33;12.28;;;;;;;6.87;49.83;94249.23;1742843;81;21173;-62
2021/04/27 06:49:38;;;;;;;21.33;12.18;;;;;;;6.89;49.00;94250.17;1707722;82;21241;-57
2021/04/27 06:52:06;;;;;;;14.65;9.00;;;;;;;6.90;48.92;94251.70;1744915;81;21141;-62
2021/04/27 06:54:34;;;;;;;12.80;9.03;;;;;;;6.87;49.45;94253.33;1744487;81;21144;-56
2021/04/27 06:57:02;;;;;;;16.12;9.55;;;;;;;6.90;49.36;94258.54;1743277;80;21224;-58
2021/04/27 06:59:32;;;;;;;12.45;8.55;;;;;;;6.89;49.34;94252.91;1742210;80;21420;-58
2021/04/27 07:02:01;;;;;;;29.23;11.00;;;;;;;6.88;49.23;94263.67;1750159;80;22230;-58
2021/04/27 07:04:29;;;;;;;22.93;8.60;;;;;;;6.83;49.02;94257.36;1742647;80;21174;-59
2021/04/27 07:06:57;;;;;;;14.63;8.98;;;;;;;6.83;49.46;94264.98;1734512;81;21643;-60
2021/04/27 07:09:25;;;;;;;17.55;11.35;;;;;;;6.91;49.33;94260.07;1744666;81;21564;-59
2021/04/27 07:11:53;;;;;;;34.67;12.40;;;;;;;6.92;49.15;94261.60;1730365;81;21260;-58
2021/04/27 07:14:22;;;;;;;27.27;9.90;;;;;;;6.94;49.20;94268.77;1770389;79;21157;-59
2021/04/27 07:16:50;;;;;;;12.58;9.10;;;;;;;6.98;48.41;94268.05;1728697;81;21244;-62
2021/04/27 07:19:19;;;;;;;12.47;9.23;;;;;;;6.98;47.86;94268.05;1745182;81;21167;-60
2021/04/27 07:21:47;;;;;;;17.23;9.48;;;;;;;6.92;48.05;94260.23;1725046;82;22678;-58
2021/04/27 07:24:16;;;;;;;12.40;8.73;;;;;;;6.92;48.74;94261.60;1727505;81;21140;-58
2021/04/27 07:26:45;;;;;;;12.82;9.60;;;;;;;7.04;49.33;94264.97;1730941;81;21185;-57
2021/04/27 07:29:15;;;;;;;18.10;9.65;;;;;;;7.15;48.18;94269.66;1743671;80;21133;-62
2021/04/27 07:31:44;;;;;;;16.52;9.33;;;;;;;7.20;48.62;94269.14;1762075;80;21201;-60
2021/04/27 07:34:12;;;;;;;11.15;8.48;;;;;;;7.29;48.25;94273.34;1758142;80;21393;-60
2021/04/27 07:36:40;;;;;;;19.45;10.88;;;;;;;7.40;47.70;94271.06;1749365;80;21113;-62
2021/04/27 07:39:09;;;;;;;18.82;11.60;;;;;;;7.49;48.03;94276.63;1746430;80;21184;-58
2021/04/27 07:41:37;;;;;;;14.45;9.83;;;;;;;7.57;48.33;94276.59;1751688;80;21149;-60
2021/04/27 07:44:06;;;;;;;14.87;8.40;;;;;;;7.62;48.92;94273.29;1752100;80;21959;-59
2021/04/27 07:46:35;;;;;;;12.98;8.28;;;;;;;7.64;48.61;94275.57;1750751;80;21491;-58
2021/04/27 07:49:03;;;;;;;42.38;17.02;;;;;;;7.71;48.51;94276.11;1743450;80;21227;-63
2021/04/27 07:51:35;;;;;;;19.23;10.78;;;;;;;7.77;48.36;94277.11;1756311;80;21157;-59
2021/04/27 07:54:04;;;;;;;14.65;10.35;;;;;;;7.80;47.69;94279.55;1766506;80;21163;-56
2021/04/27 07:56:33;;;;;;;19.55;11.83;;;;;;;7.78;47.59;94284.12;1735779;80;21192;-60
2021/04/27 07:59:03;;;;;;;13.20;10.13;;;;;;;7.77;47.92;94282.59;1750533;80;21217;-61
2021/04/27 08:01:34;;;;;;;10.95;8.23;;;;;;;7.76;48.10;94286.53;1735646;80;21715;-53
2021/04/27 08:04:04;;;;;;;12.70;9.33;;;;;;;7.77;48.33;94286.70;1750084;80;21642;-56
2021/04/27 08:06:32;;;;;;;19.75;10.88;;;;;;;7.87;49.02;94290.30;1750632;80;21508;-58
2021/04/27 08:09:05;;;;;;;22.48;10.40;;;;;;;8.09;47.23;94294.61;1745283;81;22229;-56
2021/04/27 08:11:33;;;;;;;11.55;8.23;;;;;;;8.26;45.99;94291.92;1746536;80;21610;-58
2021/04/27 08:14:03;;;;;;;13.30;7.83;;;;;;;8.37;45.81;94292.34;1747570;82;21210;-57
2021/04/27 08:16:32;;;;;;;25.80;8.05;;;;;;;8.43;45.23;94291.17;1746857;80;21268;-58
2021/04/27 08:19:03;;;;;;;15.08;8.50;;;;;;;8.47;45.61;94282.96;1743993;81;21199;-60
2021/04/27 08:21:32;;;;;;;19.55;10.55;;;;;;;8.56;45.42;94285.80;1743191;82;21260;-58
2021/04/27 08:24:02;;;;;;;10.40;8.48;;;;;;;8.57;44.74;94290.06;1740513;81;21213;-58
2021/04/27 08:26:33;;;;;;;10.48;8.55;;;;;;;8.51;45.78;94298.70;1743209;80;21225;-58
2021/04/27 08:29:01;;;;;;;11.88;8.65;;;;;;;8.58;45.96;94286.11;1748369;79;21634;-58
2021/04/27 08:31:31;;;;;;;12.93;7.53;;;;;;;8.70;46.50;94290.00;1745136;80;21196;-58
2021/04/27 08:34:00;;;;;;;9.33;7.55;;;;;;;8.78;45.37;94287.94;1740674;82;21191;-56
2021/04/27 08:36:29;;;;;;;16.42;8.73;;;;;;;8.79;44.74;94299.06;1746363;80;22108;-56
2021/04/27 08:38:57;;;;;;;14.47;7.40;;;;;;;8.88;46.46;94282.69;1733581;82;21267;-57
2021/04/27 08:41:26;;;;;;;15.72;7.47;;;;;;;9.09;45.38;94290.13;1742821;80;21786;-56
2021/04/27 08:43:55;;;;;;;21.50;12.15;;;;;;;9.23;45.97;94288.24;1746873;82;21161;-59
2021/04/27 08:46:22;;;;;;;13.62;10.35;;;;;;;9.22;45.12;94290.20;1748015;80;21221;-57
2021/04/27 08:48:52;;;;;;;14.55;9.28;;;;;;;9.16;45.11;94289.86;1741073;81;21802;-56
2021/04/27 08:51:22;;;;;;;16.75;11.08;;;;;;;9.15;45.26;94280.09;1745925;80;21176;-58
2021/04/27 08:53:53;;;;;;;13.55;7.72;;;;;;;9.13;45.41;94286.64;1745486;81;21181;-57
2021/04/27 08:56:21;;;;;;;21.27;9.03;;;;;;;8.97;44.13;94282.73;1723888;82;21200;-56
2021/04/27 08:58:50;;;;;;;28.32;9.45;;;;;;;8.75;44.79;94284.72;1732465;82;21250;-56
2021/04/27 09:01:19;;;;;;;15.28;10.03;;;;;;;8.70;45.41;94273.55;1726516;81;21449;-56
2021/04/27 09:03:54;;;;;;;13.75;8.60;;;;;;;8.78;46.83;94266.00;1747632;81;21195;-57
2021/04/27 09:06:23;;;;;;;14.65;9.20;;;;;;;8.87;46.96;94272.93;1747542;80;21177;-58
2021/04/27 09:08:53;;;;;;;13.58;9.40;;;;;;;8.96;46.12;94271.60;1747631;81;22245;-61
2021/04/27 09:11:40;;;;;;;15.70;8.25;;;;;;;9.07;46.57;94270.61;1748247;82;22119;-60
2021/04/27 09:14:19;;;;;;;10.32;9.00;;;;;;;9.20;47.01;94267.94;1736646;81;21220;-58
2021/04/27 09:16:56;;;;;;;18.67;10.03;;;;;;;9.49;46.90;94269.77;1741096;80;21210;-59
2021/04/27 09:19:42;;;;;;;9.23;7.55;;;;;;;9.76;46.47;94275.34;1717323;82;21638;-57
2021/04/27 09:22:20;;;;;;;16.50;10.15;;;;;;;10.04;43.49;94274.25;1742463;82;21193;-58
2021/04/27 09:25:03;;;;;;;16.32;11.78;;;;;;;10.06;44.05;94273.78;1748247;81;21645;-56
2021/04/27 09:27:45;;;;;;;19.17;10.08;;;;;;;10.19;44.81;94267.55;1732910;81;21368;-60
2021/04/27 09:30:26;;;;;;;19.50;10.65;;;;;;;10.25;43.74;94269.84;1762062;81;21159;-58
2021/04/27 09:33:06;;;;;;;19.00;8.83;;;;;;;10.17;44.09;94271.38;1756866;79;21218;-61
2021/04/27 09:35:46;;;;;;;12.90;9.48;;;;;;;10.11;44.26;94271.20;1739831;81;21121;-56
2021/04/27 09:38:29;;;;;;;21.93;11.25;;;;;;;10.07;44.01;94267.84;1748254;81;21204;-55
2021/04/27 09:41:04;;;;;;;16.52;11.28;;;;;;;9.86;44.28;94274.77;1765869;79;21201;-56
2021/04/27 09:43:42;;;;;;;18.15;10.88;;;;;;;9.63;44.45;94273.94;1729968;81;21194;-57
2021/04/27 09:46:17;;;;;;;23.90;13.72;;;;;;;9.40;44.80;94272.45;1754208;80;21133;-58
2021/04/27 09:48:51;;;;;;;23.92;11.68;;;;;;;9.20;45.95;94274.02;1731605;81;21563;-57
2021/04/27 09:51:29;;;;;;;20.27;11.97;;;;;;;9.13;46.21;94282.53;1778542;80;22562;-58
2021/04/27 09:54:01;;;;;;;20.45;11.00;;;;;;;9.03;47.01;94283.70;1732636;81;21306;-56
2021/04/27 09:56:49;;;;;;;22.90;14.10;;;;;;;9.05;47.22;94285.39;1746763;80;21230;-58
2021/04/27 09:59:30;;;;;;;16.77;11.05;;;;;;;9.13;47.37;94284.68;1748998;81;21153;-56
2021/04/27 10:02:04;;;;;;;27.65;15.93;;;;;;;9.23;47.09;94278.64;1745655;81;21181;-60
2021/04/27 10:04:33;;;;;;;19.65;12.07;;;;;;;9.38;48.14;94278.23;1744642;81;21189;-55
2021/04/27 10:07:02;;;;;;;16.55;11.70;;;;;;;9.63;46.92;94283.55;1746694;81;22215;-60
2021/04/27 10:09:32;;;;;;;26.35;12.45;;;;;;;9.78;46.23;94277.03;1742780;81;21548;-55
2021/04/27 10:12:04;;;;;;;14.05;10.90;;;;;;;9.72;45.76;94277.48;1765507;80;21547;-56
2021/04/27 10:14:33;;;;;;;25.20;15.48;;;;;;;9.60;45.65;94272.09;1764353;81;21148;-60
2021/04/27 10:17:01;;;;;;;27.42;16.67;;;;;;;9.47;45.88;94274.17;1708682;81;21177;-56
2021/04/27 10:19:29;;;;;;;19.57;13.72;;;;;;;9.26;46.43;94275.73;1771925;79;21205;-57
2021/04/27 10:21:57;;;;;;;22.00;14.20;;;;;;;9.09;47.64;94277.78;1767960;79;21584;-58
2021/04/27 10:24:26;;;;;;;19.80;14.05;;;;;;;8.97;47.89;94281.36;1767417;79;21592;-58
2021/04/27 10:26:54;;;;;;;26.10;15.25;;;;;;;8.91;47.89;94284.53;1739320;79;21245;-55
2021/04/27 10:29:26;;;;;;;15.63;11.57;;;;;;;8.84;48.20;94282.03;1748844;79;21236;-55
2021/04/27 10:32:17;;;;;;;20.27;11.10;;;;;;;8.82;49.24;94285.83;1763680;79;21257;-56
2021/04/27 10:35:02;;;;;;;16.80;11.43;;;;;;;8.82;49.25;94287.20;1760466;79;21593;-56
2021/04/27 10:37:52;;;;;;;18.12;11.78;;;;;;;8.67;49.49;94290.31;1745448;79;21532;-59
2021/04/27 10:40:53;;;;;;;30.32;15.15;;;;;;;8.58;49.58;94286.11;1733783;81;21205;-57
2021/04/27 10:43:30;;;;;;;20.90;12.00;;;;;;;8.42;49.74;94289.64;1742216;81;21178;-58
2021/04/27 10:46:08;;;;;;;28.15;13.70;;;;;;;8.28;49.56;94294.98;1708816;82;21405;-56
2021/04/27 10:51:27;;;;;;;25.55;15.78;;;;;;;8.15;49.92;94296.98;1845550;77;22713;-59
2021/04/27 10:54:21;;;;;;;26.37;14.45;;;;;;;8.04;49.87;94298.54;1746628;82;21203;-59
2021/04/27 10:57:07;;;;;;;27.82;18.48;;;;;;;7.94;50.20;94291.42;1736718;80;21392;-57
2021/04/27 11:00:02;;;;;;;27.48;18.02;;;;;;;7.79;50.96;94302.08;1763437;81;21156;-56
2021/04/27 11:02:31;;;;;;;20.52;14.98;;;;;;;7.62;51.73;94299.88;1729897;80;21195;-60
2021/04/27 11:05:13;;;;;;;22.15;15.55;;;;;;;7.51;51.83;94300.21;1755958;80;21269;-57
2021/04/27 11:07:41;;;;;;;23.87;15.83;;;;;;;7.37;52.25;94302.01;1743092;82;21149;-57
2021/04/27 11:10:17;;;;;;;19.98;14.10;;;;;;;7.20;53.02;94304.70;1756546;79;21880;-58
2021/04/27 11:12:56;;;;;;;19.35;14.00;;;;;;;7.10;52.59;94308.50;1768424;79;21978;-59
2021/04/27 11:15:40;;;;;;;21.80;16.50;;;;;;;6.96;53.49;94312.25;1780071;79;21224;-57
2021/04/27 11:18:20;;;;;;;21.75;15.65;;;;;;;6.86;54.13;94316.66;1752611;79;21126;-56
2021/04/27 11:20:56;;;;;;;20.75;14.68;;;;;;;6.82;54.79;94317.34;1762719;79;21127;-57
2021/04/27 11:23:56;;;;;;;16.07;12.78;;;;;;;6.80;55.98;94321.89;1758910;80;22673;-59
2021/04/27 11:26:36;;;;;;;15.93;13.30;;;;;;;6.81;56.95;94330.84;1755908;80;21190;-58
2021/04/27 11:29:21;;;;;;;15.48;10.95;;;;;;;6.86;58.12;94329.72;1765735;79;21564;-57
2021/04/27 11:32:05;;;;;;;17.52;13.45;;;;;;;7.02;56.72;94327.50;1717488;83;21666;-56
2021/04/27 11:35:02;;;;;;;17.70;14.50;;;;;;;7.16;58.47;94332.73;1759060;79;21179;-55
2021/04/27 11:37:39;;;;;;;16.37;13.65;;;;;;;7.29;58.63;94334.91;1758379;80;21383;-57
2021/04/27 11:40:21;;;;;;;12.82;11.40;;;;;;;7.41;58.50;94335.53;1754755;81;21209;-56
2021/04/27 11:42:53;;;;;;;;;;;;;;;7.51;56.64;94334.42;1750565;80;21665;-56
2021/04/27 11:45:21;;;;;;;16.73;11.30;;;;;;;7.46;56.87;94336.94;1726155;81;20245;-58
2021/04/27 11:47:50;;;;;;;16.77;13.45;;;;;;;7.36;57.07;94333.93;1725599;81;21143;-55
2021/04/27 11:50:24;;;;;;;15.28;13.10;;;;;;;7.33;57.12;94335.55;1720652;81;21391;-57
2021/04/27 11:52:55;;;;;;;22.42;14.10;;;;;;;7.36;57.24;94333.93;1719878;81;21207;-56